sensor_id;sensor_type;location;lat;lon;timestamp;pressure;altitude;pressure_sealevel;temperature;humidity
59103;BME280;43999;51.660;5.616;2023-12-20T00:02:23;101397.09;;;5.63;100.00
59103;BME280;43999;51.660;5.616;2023-12-20T00:05:20;101398.09;;;5.57;100.00
59103;BME280;43999;51.660;5.616;2023-12-20T00:08:10;101397.31;;;5.54;100.00
59103;BME280;43999;51.660;5.616;2023-12-20T00:10:58;101393.09;;;5.48;100.00
59103;BME280;43999;51.660;5.616;2023-12-20T00:13:52;101404.53;;;5.43;100.00
59103;BME280;43999;51.660;5.616;2023-12-20T00:16:40;101394.28;;;5.36;100.00
59103;BME280;43999;51.660;5.616;2023-12-20T00:19:28;101398.66;;;5.33;100.00
59103;BME280;43999;51.660;5.616;2023-12-20T00:22:16;101399.63;;;5.30;100.00
59103;BME280;43999;51.660;5.616;2023-12-20T00:25:06;101397.88;;;5.29;100.00
59103;BME280;43999;51.660;5.616;2023-12-20T00:28:00;101385.72;;;5.31;100.00
59103;BME280;43999;51.660;5.616;2023-12-20T00:30:48;101380.53;;;5.30;100.00
59103;BME280;43999;51.660;5.616;2023-12-20T00:33:36;101394.31;;;5.35;100.00
59103;BME280;43999;51.660;5.616;2023-12-20T00:36:27;101390.88;;;5.33;100.00
59103;BME280;43999;51.660;5.616;2023-12-20T00:39:15;101374.41;;;5.34;100.00
59103;BME280;43999;51.660;5.616;2023-12-20T00:42:10;101381.47;;;5.29;100.00
59103;BME280;43999;51.660;5.616;2023-12-20T00:45:00;101375.53;;;5.24;100.00
59103;BME280;43999;51.660;5.616;2023-12-20T00:47:49;101379.06;;;5.19;100.00
59103;BME280;43999;51.660;5.616;2023-12-20T00:50:39;101375.69;;;5.16;100.00
59103;BME280;43999;51.660;5.616;2023-12-20T00:53:28;101376.69;;;5.10;100.00
59103;BME280;43999;51.660;5.616;2023-12-20T00:56:19;101387.16;;;5.06;100.00
59103;BME280;43999;51.660;5.616;2023-12-20T00:59:08;101382.88;;;5.03;100.00
59103;BME280;43999;51.660;5.616;2023-12-20T01:01:59;101379.59;;;4.96;100.00
59103;BME280;43999;51.660;5.616;2023-12-20T01:04:48;101377.84;;;4.95;100.00
59103;BME280;43999;51.660;5.616;2023-12-20T01:07:39;101371.91;;;4.90;100.00
59103;BME280;43999;51.660;5.616;2023-12-20T01:10:27;101384.06;;;4.90;100.00
59103;BME280;43999;51.660;5.616;2023-12-20T01:13:17;101385.81;;;4.88;100.00
59103;BME280;43999;51.660;5.616;2023-12-20T01:16:05;101376.34;;;4.87;100.00
59103;BME280;43999;51.660;5.616;2023-12-20T01:18:53;101382.38;;;4.87;100.00
59103;BME280;43999;51.660;5.616;2023-12-20T01:21:42;101385.06;;;4.82;100.00
59103;BME280;43999;51.660;5.616;2023-12-20T01:24:30;101391.09;;;4.83;100.00
59103;BME280;43999;51.660;5.616;2023-12-20T01:27:27;101381.59;;;4.83;100.00
59103;BME280;43999;51.660;5.616;2023-12-20T01:30:17;101375.53;;;4.83;100.00
59103;BME280;43999;51.660;5.616;2023-12-20T01:33:13;101382.47;;;4.82;100.00
59103;BME280;43999;51.660;5.616;2023-12-20T01:36:03;101371.22;;;4.83;100.00
59103;BME280;43999;51.660;5.616;2023-12-20T01:38:58;101385.03;;;4.84;100.00
59103;BME280;43999;51.660;5.616;2023-12-20T01:41:47;101382.38;;;4.87;100.00
59103;BME280;43999;51.660;5.616;2023-12-20T01:44:35;101373.72;;;4.88;100.00
59103;BME280;43999;51.660;5.616;2023-12-20T01:47:25;101375.38;;;4.91;100.00
59103;BME280;43999;51.660;5.616;2023-12-20T01:50:16;101382.31;;;4.90;100.00
59103;BME280;43999;51.660;5.616;2023-12-20T01:53:07;101377.22;;;4.85;100.00
59103;BME280;43999;51.660;5.616;2023-12-20T01:55:59;101383.28;;;4.84;100.00
59103;BME280;43999;51.660;5.616;2023-12-20T01:58:47;101385.09;;;4.81;100.00
59103;BME280;43999;51.660;5.616;2023-12-20T02:01:36;101377.44;;;4.75;100.00
59103;BME280;43999;51.660;5.616;2023-12-20T02:04:25;101384.38;;;4.74;100.00
59103;BME280;43999;51.660;5.616;2023-12-20T02:07:14;101383.59;;;4.69;100.00
59103;BME280;43999;51.660;5.616;2023-12-20T02:10:03;101392.31;;;4.68;100.00
59103;BME280;43999;51.660;5.616;2023-12-20T02:12:53;101394.09;;;4.64;100.00
59103;BME280;43999;51.660;5.616;2023-12-20T02:15:43;101407.13;;;4.61;100.00
59103;BME280;43999;51.660;5.616;2023-12-20T02:18:32;101397.66;;;4.60;100.00
59103;BME280;43999;51.660;5.616;2023-12-20T02:21:25;101402.84;;;4.60;100.00
59103;BME280;43999;51.660;5.616;2023-12-20T02:24:13;101388.16;;;4.58;100.00
59103;BME280;43999;51.660;5.616;2023-12-20T02:27:02;101384.78;;;4.54;100.00
59103;BME280;43999;51.660;5.616;2023-12-20T02:29:51;101380.50;;;4.52;100.00
59103;BME280;43999;51.660;5.616;2023-12-20T02:32:40;101377.09;;;4.49;100.00
59103;BME280;43999;51.660;5.616;2023-12-20T02:35:29;101384.94;;;4.46;100.00
59103;BME280;43999;51.660;5.616;2023-12-20T02:38:17;101389.28;;;4.44;100.00
59103;BME280;43999;51.660;5.616;2023-12-20T02:41:06;101391.06;;;4.42;100.00
59103;BME280;43999;51.660;5.616;2023-12-20T02:43:56;101391.97;;;4.40;100.00
59103;BME280;43999;51.660;5.616;2023-12-20T02:46:47;101389.34;;;4.41;100.00
59103;BME280;43999;51.660;5.616;2023-12-20T02:49:37;101386.72;;;4.43;100.00
59103;BME280;43999;51.660;5.616;2023-12-20T02:52:27;101378.09;;;4.42;100.00
59103;BME280;43999;51.660;5.616;2023-12-20T02:55:16;101379.84;;;4.42;100.00
59103;BME280;43999;51.660;5.616;2023-12-20T02:58:05;101373.00;;;4.38;100.00
59103;BME280;43999;51.660;5.616;2023-12-20T03:00:55;101369.53;;;4.39;100.00
59103;BME280;43999;51.660;5.616;2023-12-20T03:03:44;101381.59;;;4.40;100.00
59103;BME280;43999;51.660;5.616;2023-12-20T03:06:32;101366.03;;;4.40;100.00
59103;BME280;43999;51.660;5.616;2023-12-20T03:09:21;101366.94;;;4.39;100.00
59103;BME280;43999;51.660;5.616;2023-12-20T03:12:20;101358.25;;;4.40;100.00
59103;BME280;43999;51.660;5.616;2023-12-20T03:15:11;101348.78;;;4.37;100.00
59103;BME280;43999;51.660;5.616;2023-12-20T03:17:59;101344.47;;;4.36;100.00
59103;BME280;43999;51.660;5.616;2023-12-20T03:20:47;101355.69;;;4.38;100.00
59103;BME280;43999;51.660;5.616;2023-12-20T03:23:37;101359.16;;;4.39;100.00
59103;BME280;43999;51.660;5.616;2023-12-20T03:26:25;101350.50;;;4.37;100.00
59103;BME280;43999;51.660;5.616;2023-12-20T03:29:17;101348.75;;;4.39;100.00
59103;BME280;43999;51.660;5.616;2023-12-20T03:32:05;101353.97;;;4.37;100.00
59103;BME280;43999;51.660;5.616;2023-12-20T03:34:56;101355.69;;;4.37;100.00
59103;BME280;43999;51.660;5.616;2023-12-20T03:37:45;101354.03;;;4.34;100.00
59103;BME280;43999;51.660;5.616;2023-12-20T03:40:35;101346.28;;;4.33;100.00
59103;BME280;43999;51.660;5.616;2023-12-20T03:43:24;101333.28;;;4.34;100.00
59103;BME280;43999;51.660;5.616;2023-12-20T03:46:13;101333.22;;;4.37;100.00
59103;BME280;43999;51.660;5.616;2023-12-20T03:49:02;101327.13;;;4.38;100.00
59103;BME280;43999;51.660;5.616;2023-12-20T03:51:51;101334.03;;;4.39;100.00
59103;BME280;43999;51.660;5.616;2023-12-20T03:54:40;101340.00;;;4.43;100.00
59103;BME280;43999;51.660;5.616;2023-12-20T03:57:30;101341.63;;;4.48;100.00
59103;BME280;43999;51.660;5.616;2023-12-20T04:00:19;101348.47;;;4.54;100.00
59103;BME280;43999;51.660;5.616;2023-12-20T04:03:08;101350.97;;;4.59;100.00
59103;BME280;43999;51.660;5.616;2023-12-20T04:05:56;101350.91;;;4.62;100.00
59103;BME280;43999;51.660;5.616;2023-12-20T04:08:45;101353.34;;;4.68;100.00
59103;BME280;43999;51.660;5.616;2023-12-20T04:11:33;101358.47;;;4.73;100.00
59103;BME280;43999;51.660;5.616;2023-12-20T04:14:21;101334.25;;;4.71;100.00
59103;BME280;43999;51.660;5.616;2023-12-20T04:17:17;101340.38;;;4.68;100.00
59103;BME280;43999;51.660;5.616;2023-12-20T04:20:06;101355.94;;;4.70;100.00
59103;BME280;43999;51.660;5.616;2023-12-20T04:22:55;101348.97;;;4.70;100.00
59103;BME280;43999;51.660;5.616;2023-12-20T04:25:43;101341.13;;;4.73;100.00
59103;BME280;43999;51.660;5.616;2023-12-20T04:28:32;101345.38;;;4.77;100.00
59103;BME280;43999;51.660;5.616;2023-12-20T04:31:21;101339.28;;;4.78;100.00
59103;BME280;43999;51.660;5.616;2023-12-20T04:34:09;101344.41;;;4.81;100.00
59103;BME280;43999;51.660;5.616;2023-12-20T04:37:12;101341.78;;;4.83;100.00
59103;BME280;43999;51.660;5.616;2023-12-20T04:40:10;101341.72;;;4.86;100.00
59103;BME280;43999;51.660;5.616;2023-12-20T04:42:59;101337.31;;;4.90;100.00
59103;BME280;43999;51.660;5.616;2023-12-20T04:45:49;101344.16;;;4.92;100.00
59103;BME280;43999;51.660;5.616;2023-12-20T04:48:38;101345.81;;;4.96;100.00
59103;BME280;43999;51.660;5.616;2023-12-20T04:51:28;101344.91;;;4.99;100.00
59103;BME280;43999;51.660;5.616;2023-12-20T04:54:16;101354.31;;;5.03;100.00
59103;BME280;43999;51.660;5.616;2023-12-20T04:57:04;101363.88;;;5.02;100.00
59103;BME280;43999;51.660;5.616;2023-12-20T04:59:52;101364.66;;;5.05;100.00
59103;BME280;43999;51.660;5.616;2023-12-20T05:02:46;101359.44;;;5.06;100.00
59103;BME280;43999;51.660;5.616;2023-12-20T05:05:35;101359.34;;;5.11;100.00
59103;BME280;43999;51.660;5.616;2023-12-20T05:08:28;101354.06;;;5.14;100.00
59103;BME280;43999;51.660;5.616;2023-12-20T05:11:16;101344.56;;;5.14;100.00
59103;BME280;43999;51.660;5.616;2023-12-20T05:14:07;101334.09;;;5.17;100.00
59103;BME280;43999;51.660;5.616;2023-12-20T05:16:55;101347.00;;;5.20;100.00
59103;BME280;43999;51.660;5.616;2023-12-20T05:19:45;101345.22;;;5.23;100.00
59103;BME280;43999;51.660;5.616;2023-12-20T05:22:33;101333.00;;;5.26;100.00
59103;BME280;43999;51.660;5.616;2023-12-20T05:25:21;101332.97;;;5.28;100.00
59103;BME280;43999;51.660;5.616;2023-12-20T05:28:09;101331.13;;;5.31;100.00
59103;BME280;43999;51.660;5.616;2023-12-20T05:31:00;101327.69;;;5.31;100.00
59103;BME280;43999;51.660;5.616;2023-12-20T05:33:48;101337.97;;;5.35;100.00
59103;BME280;43999;51.660;5.616;2023-12-20T05:36:36;101325.81;;;5.36;100.00
59103;BME280;43999;51.660;5.616;2023-12-20T05:39:24;101334.44;;;5.39;100.00
59103;BME280;43999;51.660;5.616;2023-12-20T05:42:15;101331.78;;;5.41;100.00
59103;BME280;43999;51.660;5.616;2023-12-20T05:45:04;101323.06;;;5.42;100.00
59103;BME280;43999;51.660;5.616;2023-12-20T05:47:56;101329.16;;;5.43;100.00
59103;BME280;43999;51.660;5.616;2023-12-20T05:50:45;101328.19;;;5.45;100.00
59103;BME280;43999;51.660;5.616;2023-12-20T05:53:33;101322.97;;;5.47;100.00
59103;BME280;43999;51.660;5.616;2023-12-20T05:56:30;101331.63;;;5.47;100.00
59103;BME280;43999;51.660;5.616;2023-12-20T05:59:18;101340.25;;;5.49;100.00
59103;BME280;43999;51.660;5.616;2023-12-20T06:02:06;101335.94;;;5.48;100.00
59103;BME280;43999;51.660;5.616;2023-12-20T06:04:54;101335.97;;;5.47;100.00
59103;BME280;43999;51.660;5.616;2023-12-20T06:07:42;101340.22;;;5.51;100.00
59103;BME280;43999;51.660;5.616;2023-12-20T06:10:32;101345.41;;;5.51;100.00
59103;BME280;43999;51.660;5.616;2023-12-20T06:13:20;101348.81;;;5.53;100.00
59103;BME280;43999;51.660;5.616;2023-12-20T06:16:14;101347.09;;;5.53;100.00
59103;BME280;43999;51.660;5.616;2023-12-20T06:19:02;101350.53;;;5.54;100.00
59103;BME280;43999;51.660;5.616;2023-12-20T06:21:52;101360.09;;;5.53;100.00
59103;BME280;43999;51.660;5.616;2023-12-20T06:24:41;101359.16;;;5.54;100.00
59103;BME280;43999;51.660;5.616;2023-12-20T06:27:31;101358.38;;;5.52;100.00
59103;BME280;43999;51.660;5.616;2023-12-20T06:30:20;101360.97;;;5.52;100.00
59103;BME280;43999;51.660;5.616;2023-12-20T06:33:11;101351.44;;;5.51;100.00
59103;BME280;43999;51.660;5.616;2023-12-20T06:36:00;101342.81;;;5.51;100.00
59103;BME280;43999;51.660;5.616;2023-12-20T06:38:50;101348.13;;;5.46;100.00
59103;BME280;43999;51.660;5.616;2023-12-20T06:41:39;101349.78;;;5.49;100.00
59103;BME280;43999;51.660;5.616;2023-12-20T06:44:28;101339.53;;;5.43;100.00
59103;BME280;43999;51.660;5.616;2023-12-20T06:47:16;101347.31;;;5.44;100.00
59103;BME280;43999;51.660;5.616;2023-12-20T06:50:06;101354.25;;;5.42;100.00
59103;BME280;43999;51.660;5.616;2023-12-20T06:52:57;101356.09;;;5.38;100.00
59103;BME280;43999;51.660;5.616;2023-12-20T06:55:46;101342.34;;;5.35;100.00
59103;BME280;43999;51.660;5.616;2023-12-20T06:58:34;101346.69;;;5.33;100.00
59103;BME280;43999;51.660;5.616;2023-12-20T07:01:22;101345.91;;;5.29;100.00
59103;BME280;43999;51.660;5.616;2023-12-20T07:04:29;101342.56;;;5.26;100.00
59103;BME280;43999;51.660;5.616;2023-12-20T07:07:18;101343.47;;;5.23;100.00
59103;BME280;43999;51.660;5.616;2023-12-20T07:10:11;101336.66;;;5.19;100.00
59103;BME280;43999;51.660;5.616;2023-12-20T07:12:59;101347.84;;;5.21;100.00
59103;BME280;43999;51.660;5.616;2023-12-20T07:15:49;101343.63;;;5.17;100.00
59103;BME280;43999;51.660;5.616;2023-12-20T07:18:38;101342.72;;;5.18;100.00
59103;BME280;43999;51.660;5.616;2023-12-20T07:21:26;101333.22;;;5.17;100.00
59103;BME280;43999;51.660;5.616;2023-12-20T07:24:21;101327.97;;;5.18;100.00
59103;BME280;43999;51.660;5.616;2023-12-20T07:27:11;101339.31;;;5.16;100.00
59103;BME280;43999;51.660;5.616;2023-12-20T07:29:59;101338.41;;;5.17;100.00
59103;BME280;43999;51.660;5.616;2023-12-20T07:32:57;101333.28;;;5.14;100.00
59103;BME280;43999;51.660;5.616;2023-12-20T07:35:48;101348.84;;;5.15;100.00
59103;BME280;43999;51.660;5.616;2023-12-20T07:38:44;101331.59;;;5.13;100.00
59103;BME280;43999;51.660;5.616;2023-12-20T07:41:35;101323.84;;;5.11;100.00
59103;BME280;43999;51.660;5.616;2023-12-20T07:44:24;101332.50;;;5.10;100.00
59103;BME280;43999;51.660;5.616;2023-12-20T07:47:13;101342.00;;;5.13;100.00
59103;BME280;43999;51.660;5.616;2023-12-20T07:50:05;101328.16;;;5.11;100.00
59103;BME280;43999;51.660;5.616;2023-12-20T07:52:53;101323.00;;;5.09;100.00
59103;BME280;43999;51.660;5.616;2023-12-20T07:55:49;101315.28;;;5.06;100.00
59103;BME280;43999;51.660;5.616;2023-12-20T07:58:41;101332.59;;;5.07;100.00
59103;BME280;43999;51.660;5.616;2023-12-20T08:01:42;101333.47;;;5.06;100.00
59103;BME280;43999;51.660;5.616;2023-12-20T08:04:30;101337.78;;;5.07;100.00
59103;BME280;43999;51.660;5.616;2023-12-20T08:07:22;101342.94;;;5.09;100.00
59103;BME280;43999;51.660;5.616;2023-12-20T08:10:12;101343.81;;;5.08;100.00
59103;BME280;43999;51.660;5.616;2023-12-20T08:13:02;101342.97;;;5.07;100.00
59103;BME280;43999;51.660;5.616;2023-12-20T08:15:55;101346.34;;;5.11;100.00
59103;BME280;43999;51.660;5.616;2023-12-20T08:18:44;101343.78;;;5.09;100.00
59103;BME280;43999;51.660;5.616;2023-12-20T08:21:32;101356.66;;;5.14;100.00
59103;BME280;43999;51.660;5.616;2023-12-20T08:24:26;101353.19;;;5.15;100.00
59103;BME280;43999;51.660;5.616;2023-12-20T08:27:14;101362.66;;;5.17;100.00
59103;BME280;43999;51.660;5.616;2023-12-20T08:30:03;101363.47;;;5.19;100.00
59103;BME280;43999;51.660;5.616;2023-12-20T08:32:51;101358.22;;;5.23;100.00
59103;BME280;43999;51.660;5.616;2023-12-20T08:35:43;101345.16;;;5.26;100.00
59103;BME280;43999;51.660;5.616;2023-12-20T08:38:32;101347.69;;;5.29;100.00
59103;BME280;43999;51.660;5.616;2023-12-20T08:41:22;101344.09;;;5.33;100.00
59103;BME280;43999;51.660;5.616;2023-12-20T08:44:11;101344.06;;;5.34;100.00
59103;BME280;43999;51.660;5.616;2023-12-20T08:46:59;101329.31;;;5.36;100.00
59103;BME280;43999;51.660;5.616;2023-12-20T08:49:47;101322.28;;;5.40;100.00
59103;BME280;43999;51.660;5.616;2023-12-20T08:52:36;101317.88;;;5.42;100.00
59103;BME280;43999;51.660;5.616;2023-12-20T08:55:24;101319.53;;;5.46;100.00
59103;BME280;43999;51.660;5.616;2023-12-20T08:58:15;101309.97;;;5.47;100.00
59103;BME280;43999;51.660;5.616;2023-12-20T09:01:07;101333.13;;;5.56;100.00
59103;BME280;43999;51.660;5.616;2023-12-20T09:03:58;101320.19;;;5.54;100.00
59103;BME280;43999;51.660;5.616;2023-12-20T09:06:47;101328.81;;;5.56;100.00
59103;BME280;43999;51.660;5.616;2023-12-20T09:09:37;101330.38;;;5.62;100.00
59103;BME280;43999;51.660;5.616;2023-12-20T09:12:30;101322.63;;;5.61;100.00
59103;BME280;43999;51.660;5.616;2023-12-20T09:15:20;101329.53;;;5.62;100.00
59103;BME280;43999;51.660;5.616;2023-12-20T09:18:09;101333.78;;;5.66;100.00
59103;BME280;43999;51.660;5.616;2023-12-20T09:20:58;101333.69;;;5.69;100.00
59103;BME280;43999;51.660;5.616;2023-12-20T09:23:49;101327.63;;;5.68;100.00
59103;BME280;43999;51.660;5.616;2023-12-20T09:26:42;101322.31;;;5.73;100.00
59103;BME280;43999;51.660;5.616;2023-12-20T09:29:38;101330.03;;;5.76;100.00
59103;BME280;43999;51.660;5.616;2023-12-20T09:32:28;101331.72;;;5.79;100.00
59103;BME280;43999;51.660;5.616;2023-12-20T09:35:19;101329.03;;;5.82;100.00
59103;BME280;43999;51.660;5.616;2023-12-20T09:38:18;101319.34;;;5.87;100.00
59103;BME280;43999;51.660;5.616;2023-12-20T09:41:06;101310.75;;;5.85;100.00
59103;BME280;43999;51.660;5.616;2023-12-20T09:43:59;101328.78;;;5.91;100.00
59103;BME280;43999;51.660;5.616;2023-12-20T09:46:54;101327.03;;;5.91;100.00
59103;BME280;43999;51.660;5.616;2023-12-20T09:49:43;101323.47;;;5.96;100.00
59103;BME280;43999;51.660;5.616;2023-12-20T09:52:38;101319.09;;;5.98;100.00
59103;BME280;43999;51.660;5.616;2023-12-20T09:56:04;101323.38;;;6.00;100.00
59103;BME280;43999;51.660;5.616;2023-12-20T09:59:03;101319.94;;;6.00;100.00
59103;BME280;43999;51.660;5.616;2023-12-20T10:02:11;101323.25;;;6.05;100.00
59103;BME280;43999;51.660;5.616;2023-12-20T10:05:31;101330.09;;;6.09;100.00
59103;BME280;43999;51.660;5.616;2023-12-20T10:08:37;101330.84;;;6.13;100.00
59103;BME280;43999;51.660;5.616;2023-12-20T10:11:34;101325.56;;;6.16;100.00
59103;BME280;43999;51.660;5.616;2023-12-20T10:14:45;101317.66;;;6.19;100.00
59103;BME280;43999;51.660;5.616;2023-12-20T10:17:52;101321.03;;;6.22;100.00
59103;BME280;43999;51.660;5.616;2023-12-20T10:20:45;101318.38;;;6.24;100.00
59103;BME280;43999;51.660;5.616;2023-12-20T10:24:04;101332.25;;;6.24;100.00
59103;BME280;43999;51.660;5.616;2023-12-20T10:27:12;101325.34;;;6.23;100.00
59103;BME280;43999;51.660;5.616;2023-12-20T10:30:30;101328.78;;;6.24;100.00
59103;BME280;43999;51.660;5.616;2023-12-20T10:33:59;101322.69;;;6.25;100.00
59103;BME280;43999;51.660;5.616;2023-12-20T10:37:22;101323.44;;;6.28;100.00
59103;BME280;43999;51.660;5.616;2023-12-20T10:40:30;101307.88;;;6.27;100.00
59103;BME280;43999;51.660;5.616;2023-12-20T10:43:50;101294.97;;;6.24;100.00
59103;BME280;43999;51.660;5.616;2023-12-20T10:47:04;101300.94;;;6.27;100.00
59103;BME280;43999;51.660;5.616;2023-12-20T10:50:44;101290.72;;;6.21;100.00
59103;BME280;43999;51.660;5.616;2023-12-20T10:53:52;101301.03;;;6.24;100.00
59103;BME280;43999;51.660;5.616;2023-12-20T10:56:46;101297.59;;;6.22;100.00
59103;BME280;43999;51.660;5.616;2023-12-20T10:59:43;101295.78;;;6.26;100.00
59103;BME280;43999;51.660;5.616;2023-12-20T11:03:26;101297.38;;;6.30;100.00
59103;BME280;43999;51.660;5.616;2023-12-20T11:06:54;101294.72;;;6.32;100.00
59103;BME280;43999;51.660;5.616;2023-12-20T11:10:23;101295.38;;;6.40;100.00
59103;BME280;43999;51.660;5.616;2023-12-20T11:17:15;101287.25;;;6.51;100.00
59103;BME280;43999;51.660;5.616;2023-12-20T11:20:38;101283.66;;;6.55;100.00
59103;BME280;43999;51.660;5.616;2023-12-20T11:23:35;101277.56;;;6.56;100.00
59103;BME280;43999;51.660;5.616;2023-12-20T11:26:57;101267.84;;;6.61;100.00
59103;BME280;43999;51.660;5.616;2023-12-20T11:29:57;101265.09;;;6.66;100.00
59103;BME280;43999;51.660;5.616;2023-12-20T11:33:37;101264.16;;;6.68;100.00
59103;BME280;43999;51.660;5.616;2023-12-20T11:37:03;101264.06;;;6.71;100.00
59103;BME280;43999;51.660;5.616;2023-12-20T11:40:30;101258.75;;;6.74;100.00
59103;BME280;43999;51.660;5.616;2023-12-20T11:44:08;101252.53;;;6.78;100.00
59103;BME280;43999;51.660;5.616;2023-12-20T11:47:57;101264.44;;;6.87;100.00
59103;BME280;43999;51.660;5.616;2023-12-20T11:51:14;101253.88;;;6.92;100.00
59103;BME280;43999;51.660;5.616;2023-12-20T11:54:44;101239.16;;;6.89;100.00
59103;BME280;43999;51.660;5.616;2023-12-20T11:57:56;101243.72;;;6.82;100.00
59103;BME280;43999;51.660;5.616;2023-12-20T12:01:13;101238.53;;;6.82;100.00
59103;BME280;43999;51.660;5.616;2023-12-20T12:04:35;101232.63;;;6.77;100.00
59103;BME280;43999;51.660;5.616;2023-12-20T12:07:54;101235.22;;;6.77;100.00
59103;BME280;43999;51.660;5.616;2023-12-20T12:11:33;101247.28;;;6.80;100.00
59103;BME280;43999;51.660;5.616;2023-12-20T12:14:44;101229.00;;;6.81;100.00
59103;BME280;43999;51.660;5.616;2023-12-20T12:18:41;101227.97;;;6.87;100.00
59103;BME280;43999;51.660;5.616;2023-12-20T12:22:08;101234.75;;;6.93;100.00
59103;BME280;43999;51.660;5.616;2023-12-20T12:25:22;101232.09;;;6.94;100.00
59103;BME280;43999;51.660;5.616;2023-12-20T12:28:59;101211.94;;;6.99;100.00
59103;BME280;43999;51.660;5.616;2023-12-20T12:31:54;101203.16;;;7.02;100.00
59103;BME280;43999;51.660;5.616;2023-12-20T12:35:08;101211.63;;;7.09;100.00
59103;BME280;43999;51.660;5.616;2023-12-20T12:38:24;101208.28;;;7.05;100.00
59103;BME280;43999;51.660;5.616;2023-12-20T12:41:58;101210.88;;;7.05;100.00
59103;BME280;43999;51.660;5.616;2023-12-20T12:45:03;101218.66;;;7.07;100.00
59103;BME280;43999;51.660;5.616;2023-12-20T12:48:55;101214.63;;;6.96;100.00
59103;BME280;43999;51.660;5.616;2023-12-20T12:52:05;101206.28;;;6.87;100.00
59103;BME280;43999;51.660;5.616;2023-12-20T12:55:01;101204.66;;;6.82;100.00
59103;BME280;43999;51.660;5.616;2023-12-20T12:58:11;101187.38;;;6.80;100.00
59103;BME280;43999;51.660;5.616;2023-12-20T13:01:06;101190.84;;;6.80;100.00
59103;BME280;43999;51.660;5.616;2023-12-20T13:04:14;101179.59;;;6.78;100.00
59103;BME280;43999;51.660;5.616;2023-12-20T13:07:37;101175.31;;;6.77;100.00
59103;BME280;43999;51.660;5.616;2023-12-20T13:11:19;101157.09;;;6.77;100.00
59103;BME280;43999;51.660;5.616;2023-12-20T13:14:28;101160.22;;;6.87;100.00
59103;BME280;43999;51.660;5.616;2023-12-20T13:18:25;101154.81;;;6.93;100.00
59103;BME280;43999;51.660;5.616;2023-12-20T13:22:09;101146.94;;;6.95;100.00
59103;BME280;43999;51.660;5.616;2023-12-20T13:25:42;101131.16;;;6.99;100.00
59103;BME280;43999;51.660;5.616;2023-12-20T13:29:17;101128.41;;;7.04;100.00
59103;BME280;43999;51.660;5.616;2023-12-20T13:32:18;101128.13;;;7.12;100.00
59103;BME280;43999;51.660;5.616;2023-12-20T13:35:12;101111.56;;;7.14;100.00
59103;BME280;43999;51.660;5.616;2023-12-20T13:38:55;101108.72;;;7.21;100.00
59103;BME280;43999;51.660;5.616;2023-12-20T13:42:43;101111.13;;;7.27;100.00
59103;BME280;43999;51.660;5.616;2023-12-20T13:46:42;101123.06;;;7.32;100.00
59103;BME280;43999;51.660;5.616;2023-12-20T13:50:18;101119.50;;;7.35;100.00
59103;BME280;43999;51.660;5.616;2023-12-20T13:53:25;101112.47;;;7.37;100.00
59103;BME280;43999;51.660;5.616;2023-12-20T13:56:45;101103.63;;;7.41;100.00
59103;BME280;43999;51.660;5.616;2023-12-20T14:00:06;101110.56;;;7.42;100.00
59103;BME280;43999;51.660;5.616;2023-12-20T14:03:25;101100.91;;;7.44;100.00
59103;BME280;43999;51.660;5.616;2023-12-20T14:06:45;101101.69;;;7.46;100.00
59103;BME280;43999;51.660;5.616;2023-12-20T14:09:56;101101.66;;;7.48;100.00
59103;BME280;43999;51.660;5.616;2023-12-20T14:13:27;101103.31;;;7.50;100.00
59103;BME280;43999;51.660;5.616;2023-12-20T14:16:46;101098.19;;;7.47;100.00
59103;BME280;43999;51.660;5.616;2023-12-20T14:19:59;101107.72;;;7.48;100.00
59103;BME280;43999;51.660;5.616;2023-12-20T14:23:19;101099.91;;;7.48;100.00
59103;BME280;43999;51.660;5.616;2023-12-20T14:26:13;101101.66;;;7.48;100.00
59103;BME280;43999;51.660;5.616;2023-12-20T14:29:09;101109.41;;;7.49;100.00
59103;BME280;43999;51.660;5.616;2023-12-20T14:32:15;101104.31;;;7.46;100.00
59103;BME280;43999;51.660;5.616;2023-12-20T14:35:28;101111.06;;;7.52;100.00
59103;BME280;43999;51.660;5.616;2023-12-20T14:38:41;101100.69;;;7.50;100.00
59103;BME280;43999;51.660;5.616;2023-12-20T14:41:34;101099.84;;;7.50;100.00
59103;BME280;43999;51.660;5.616;2023-12-20T14:45:03;101104.25;;;7.48;100.00
59103;BME280;43999;51.660;5.616;2023-12-20T14:48:15;101119.06;;;7.47;100.00
59103;BME280;43999;51.660;5.616;2023-12-20T14:51:13;101122.63;;;7.45;100.00
59103;BME280;43999;51.660;5.616;2023-12-20T14:54:31;101121.72;;;7.46;100.00
59103;BME280;43999;51.660;5.616;2023-12-20T14:58:15;101131.38;;;7.44;100.00
59103;BME280;43999;51.660;5.616;2023-12-20T15:01:35;101120.00;;;7.45;100.00
59103;BME280;43999;51.660;5.616;2023-12-20T15:04:48;101124.38;;;7.44;100.00
59103;BME280;43999;51.660;5.616;2023-12-20T15:08:10;101108.75;;;7.44;100.00
59103;BME280;43999;51.660;5.616;2023-12-20T15:11:24;101104.41;;;7.43;100.00
59103;BME280;43999;51.660;5.616;2023-12-20T15:14:29;101101.03;;;7.41;100.00
59103;BME280;43999;51.660;5.616;2023-12-20T15:17:26;101096.72;;;7.40;100.00
59103;BME280;43999;51.660;5.616;2023-12-20T15:20:47;101098.47;;;7.40;100.00
59103;BME280;43999;51.660;5.616;2023-12-20T15:23:38;101094.16;;;7.39;100.00
59103;BME280;43999;51.660;5.616;2023-12-20T15:26:42;101094.22;;;7.37;100.00
59103;BME280;43999;51.660;5.616;2023-12-20T15:29:36;101100.25;;;7.39;100.00
59103;BME280;43999;51.660;5.616;2023-12-20T15:32:47;101097.75;;;7.36;100.00
59103;BME280;43999;51.660;5.616;2023-12-20T15:35:53;101102.97;;;7.36;100.00
59103;BME280;43999;51.660;5.616;2023-12-20T15:39:19;101103.84;;;7.35;100.00
59103;BME280;43999;51.660;5.616;2023-12-20T15:42:27;101116.09;;;7.33;100.00